This is the latest recevied weather packets stored in our database for station/object DO9LL-1. If no packets are shown the sender has not sent any weather packets the latest 10 day(s).
| Time | Temp. | Humidity | Pressure | Rain* | Wind** | Luminosity | Snow |
|---|---|---|---|---|---|---|---|
| 1777488136 | 13.89° C | 38% | 1026.2 hPa | 0 mm | - | - | - |
| 1777487553 | 13.89° C | 37% | 1026.2 hPa | 0 mm | - | - | - |
| 1777486949 | 14.44° C | 37% | 1026.1 hPa | 0 mm | - | - | - |
| 1777486347 | 15° C | 36% | 1026 hPa | 0 mm | - | - | - |
| 1777485743 | 15.56° C | 36% | 1025.8 hPa | 0 mm | - | - | - |
| 1777485139 | 15.56° C | 36% | 1025.8 hPa | 0 mm | - | - | - |
| 1777484914 | 16.11° C | 34% | 1025.7 hPa | 0 mm | - | - | - |
| 1777484242 | 16.67° C | 33% | 1025.6 hPa | 0 mm | - | - | - |
| 1777483639 | 16.67° C | 32% | 1025.7 hPa | 0 mm | - | - | - |
| 1777483055 | 17.22° C | 32% | 1025.6 hPa | 0 mm | - | - | - |
| 1777482451 | 17.22° C | 31% | 1025.7 hPa | 0 mm | - | - | - |
| 1777481847 | 17.78° C | 32% | 1025.7 hPa | 0 mm | - | - | - |
| 1777481248 | 17.22° C | 32% | 1025.8 hPa | 0 mm | - | - | - |
| 1777480639 | 17.78° C | 33% | 1025.7 hPa | 0 mm | - | - | - |
| 1777480055 | 17.78° C | 31% | 1025.7 hPa | 0 mm | - | - | - |
| 1777479451 | 17.78° C | 33% | 1025.8 hPa | 0 mm | - | - | - |
| 1777478847 | 17.78° C | 33% | 1025.7 hPa | 0 mm | - | - | - |
| 1777478243 | 17.78° C | 30% | 1025.7 hPa | 0 mm | - | - | - |
| 1777477639 | 18.33° C | 31% | 1025.7 hPa | 0 mm | - | - | - |
| 1777477057 | 18.33° C | 33% | 1025.7 hPa | 0 mm | - | - | - |
| 1777476452 | 18.33° C | 33% | 1025.8 hPa | 0 mm | - | - | - |
| 1777475848 | 18.33° C | 31% | 1025.9 hPa | 0 mm | - | - | - |
| 1777475244 | 18.33° C | 32% | 1025.9 hPa | 0 mm | - | - | - |
| 1777474643 | 18.33° C | 31% | 1025.9 hPa | 0 mm | - | - | - |
| 1777474037 | 18.33° C | 32% | 1026 hPa | 0 mm | - | - | - |
* Rain latest hour (hover to see other rain measurements)
** Current wind speed in m/s (hover to see current wind gust speed)